sensor_id;sensor_type;location;lat;lon;timestamp;temperature;humidity
21033;DHT22;10675;47.976;7.824;2024-01-15T00:01:12;-0.80;99.90
21033;DHT22;10675;47.976;7.824;2024-01-15T00:03:37;-0.90;99.90
21033;DHT22;10675;47.976;7.824;2024-01-15T00:06:03;-1.00;99.90
21033;DHT22;10675;47.976;7.824;2024-01-15T00:08:29;-1.00;99.90
21033;DHT22;10675;47.976;7.824;2024-01-15T00:10:54;-1.00;99.90
21033;DHT22;10675;47.976;7.824;2024-01-15T00:13:20;-1.10;99.90
21033;DHT22;10675;47.976;7.824;2024-01-15T00:15:45;-1.10;99.90
21033;DHT22;10675;47.976;7.824;2024-01-15T00:18:11;-1.00;99.90
21033;DHT22;10675;47.976;7.824;2024-01-15T00:20:36;-1.00;99.90
21033;DHT22;10675;47.976;7.824;2024-01-15T00:23:02;-1.00;99.90
21033;DHT22;10675;47.976;7.824;2024-01-15T00:25:28;-0.90;99.90
21033;DHT22;10675;47.976;7.824;2024-01-15T00:27:53;-0.90;99.90
21033;DHT22;10675;47.976;7.824;2024-01-15T00:30:19;-0.90;99.90
21033;DHT22;10675;47.976;7.824;2024-01-15T00:32:44;-0.90;99.90
21033;DHT22;10675;47.976;7.824;2024-01-15T00:35:10;-0.80;99.90
21033;DHT22;10675;47.976;7.824;2024-01-15T00:37:36;-0.90;99.90
21033;DHT22;10675;47.976;7.824;2024-01-15T00:40:01;-0.80;99.90
21033;DHT22;10675;47.976;7.824;2024-01-15T00:42:27;-0.70;99.90
21033;DHT22;10675;47.976;7.824;2024-01-15T00:44:52;-0.70;99.90
21033;DHT22;10675;47.976;7.824;2024-01-15T00:47:19;-0.60;99.90
21033;DHT22;10675;47.976;7.824;2024-01-15T00:49:45;-0.60;99.90
21033;DHT22;10675;47.976;7.824;2024-01-15T00:52:10;-0.60;99.90
21033;DHT22;10675;47.976;7.824;2024-01-15T00:54:36;-0.60;99.90
21033;DHT22;10675;47.976;7.824;2024-01-15T00:57:01;-0.60;99.90
21033;DHT22;10675;47.976;7.824;2024-01-15T00:59:27;-0.50;99.90
21033;DHT22;10675;47.976;7.824;2024-01-15T01:01:52;-0.60;99.90
21033;DHT22;10675;47.976;7.824;2024-01-15T01:04:18;-0.60;99.90
21033;DHT22;10675;47.976;7.824;2024-01-15T01:06:43;-0.60;99.90
21033;DHT22;10675;47.976;7.824;2024-01-15T01:09:09;-0.60;99.90
21033;DHT22;10675;47.976;7.824;2024-01-15T01:11:34;-0.60;99.90
21033;DHT22;10675;47.976;7.824;2024-01-15T01:14:00;-0.60;99.90
21033;DHT22;10675;47.976;7.824;2024-01-15T01:16:27;-0.50;99.90
21033;DHT22;10675;47.976;7.824;2024-01-15T01:18:52;-0.60;99.90
21033;DHT22;10675;47.976;7.824;2024-01-15T01:21:18;-0.60;99.90
21033;DHT22;10675;47.976;7.824;2024-01-15T01:23:43;-0.50;99.90
21033;DHT22;10675;47.976;7.824;2024-01-15T01:26:09;-0.50;99.90
21033;DHT22;10675;47.976;7.824;2024-01-15T01:28:35;-0.50;99.90
21033;DHT22;10675;47.976;7.824;2024-01-15T01:31:00;-0.50;99.90
21033;DHT22;10675;47.976;7.824;2024-01-15T01:33:26;-0.50;99.90
21033;DHT22;10675;47.976;7.824;2024-01-15T01:35:51;-0.50;99.90
21033;DHT22;10675;47.976;7.824;2024-01-15T01:38:17;-0.40;99.90
21033;DHT22;10675;47.976;7.824;2024-01-15T01:40:42;-0.40;99.90
21033;DHT22;10675;47.976;7.824;2024-01-15T01:43:09;-0.40;99.90
21033;DHT22;10675;47.976;7.824;2024-01-15T01:45:35;-0.40;99.90
21033;DHT22;10675;47.976;7.824;2024-01-15T01:48:01;-0.40;99.90
21033;DHT22;10675;47.976;7.824;2024-01-15T01:50:29;-0.40;99.90
21033;DHT22;10675;47.976;7.824;2024-01-15T01:52:55;-0.40;99.90
21033;DHT22;10675;47.976;7.824;2024-01-15T01:55:22;-0.40;99.90
21033;DHT22;10675;47.976;7.824;2024-01-15T01:57:50;-0.40;99.90
21033;DHT22;10675;47.976;7.824;2024-01-15T02:00:15;-0.40;99.90
21033;DHT22;10675;47.976;7.824;2024-01-15T02:02:42;-0.30;99.90
21033;DHT22;10675;47.976;7.824;2024-01-15T02:05:08;-0.30;99.90
21033;DHT22;10675;47.976;7.824;2024-01-15T02:07:34;-0.20;99.90
21033;DHT22;10675;47.976;7.824;2024-01-15T02:10:01;0.00;99.90
21033;DHT22;10675;47.976;7.824;2024-01-15T02:12:26;0.00;99.90
21033;DHT22;10675;47.976;7.824;2024-01-15T02:14:52;0.10;99.90
21033;DHT22;10675;47.976;7.824;2024-01-15T02:17:17;0.00;99.90
21033;DHT22;10675;47.976;7.824;2024-01-15T02:19:43;0.00;99.90
21033;DHT22;10675;47.976;7.824;2024-01-15T02:22:09;-0.10;99.90
21033;DHT22;10675;47.976;7.824;2024-01-15T02:24:34;-0.10;99.90
21033;DHT22;10675;47.976;7.824;2024-01-15T02:27:00;-0.30;99.90
21033;DHT22;10675;47.976;7.824;2024-01-15T02:29:25;-0.50;99.90
21033;DHT22;10675;47.976;7.824;2024-01-15T02:31:51;-0.60;99.90
21033;DHT22;10675;47.976;7.824;2024-01-15T02:34:16;-0.50;99.90
21033;DHT22;10675;47.976;7.824;2024-01-15T02:36:42;-0.40;99.90
21033;DHT22;10675;47.976;7.824;2024-01-15T02:39:07;-0.40;99.90
21033;DHT22;10675;47.976;7.824;2024-01-15T02:41:33;-0.30;99.90
21033;DHT22;10675;47.976;7.824;2024-01-15T02:43:59;-0.30;99.90
21033;DHT22;10675;47.976;7.824;2024-01-15T02:46:25;-0.20;99.90
21033;DHT22;10675;47.976;7.824;2024-01-15T02:48:50;-0.20;99.90
21033;DHT22;10675;47.976;7.824;2024-01-15T02:51:16;-0.10;99.90
21033;DHT22;10675;47.976;7.824;2024-01-15T02:53:41;-0.20;99.90
21033;DHT22;10675;47.976;7.824;2024-01-15T02:56:07;-0.10;99.90
21033;DHT22;10675;47.976;7.824;2024-01-15T02:58:33;-0.20;99.90
21033;DHT22;10675;47.976;7.824;2024-01-15T03:00:58;-0.20;99.90
21033;DHT22;10675;47.976;7.824;2024-01-15T03:03:24;-0.20;99.90
21033;DHT22;10675;47.976;7.824;2024-01-15T03:05:50;-0.10;99.90
21033;DHT22;10675;47.976;7.824;2024-01-15T03:08:15;-0.10;99.90
21033;DHT22;10675;47.976;7.824;2024-01-15T03:10:41;-0.10;99.90
21033;DHT22;10675;47.976;7.824;2024-01-15T03:13:06;-0.10;99.90
21033;DHT22;10675;47.976;7.824;2024-01-15T03:15:32;-0.10;99.90
21033;DHT22;10675;47.976;7.824;2024-01-15T03:17:57;-0.10;99.90
21033;DHT22;10675;47.976;7.824;2024-01-15T03:20:23;0.00;99.90
21033;DHT22;10675;47.976;7.824;2024-01-15T03:22:48;0.00;99.90
21033;DHT22;10675;47.976;7.824;2024-01-15T03:25:14;0.00;99.90
21033;DHT22;10675;47.976;7.824;2024-01-15T03:27:40;0.00;99.90
21033;DHT22;10675;47.976;7.824;2024-01-15T03:30:06;0.00;99.90
21033;DHT22;10675;47.976;7.824;2024-01-15T03:32:31;0.10;99.90
21033;DHT22;10675;47.976;7.824;2024-01-15T03:34:57;0.00;99.90
21033;DHT22;10675;47.976;7.824;2024-01-15T03:37:23;0.00;99.90
21033;DHT22;10675;47.976;7.824;2024-01-15T03:39:48;0.10;99.90
21033;DHT22;10675;47.976;7.824;2024-01-15T03:42:14;0.00;99.90
21033;DHT22;10675;47.976;7.824;2024-01-15T03:44:40;-0.10;99.90
21033;DHT22;10675;47.976;7.824;2024-01-15T03:47:05;0.00;99.90
21033;DHT22;10675;47.976;7.824;2024-01-15T03:49:31;0.00;99.90
21033;DHT22;10675;47.976;7.824;2024-01-15T03:51:56;0.10;99.90
21033;DHT22;10675;47.976;7.824;2024-01-15T03:54:22;0.00;99.90
21033;DHT22;10675;47.976;7.824;2024-01-15T03:56:47;0.00;99.90
21033;DHT22;10675;47.976;7.824;2024-01-15T03:59:13;0.00;99.90
21033;DHT22;10675;47.976;7.824;2024-01-15T04:01:38;0.00;99.90
21033;DHT22;10675;47.976;7.824;2024-01-15T04:04:04;0.10;99.90
21033;DHT22;10675;47.976;7.824;2024-01-15T04:06:29;0.10;99.90
21033;DHT22;10675;47.976;7.824;2024-01-15T04:08:55;0.10;99.90
21033;DHT22;10675;47.976;7.824;2024-01-15T04:11:20;0.10;99.90
21033;DHT22;10675;47.976;7.824;2024-01-15T04:13:47;0.30;99.90
21033;DHT22;10675;47.976;7.824;2024-01-15T04:16:13;0.10;99.90
21033;DHT22;10675;47.976;7.824;2024-01-15T04:18:39;0.00;99.90
21033;DHT22;10675;47.976;7.824;2024-01-15T04:21:05;0.00;99.90
21033;DHT22;10675;47.976;7.824;2024-01-15T04:23:32;0.00;99.90
21033;DHT22;10675;47.976;7.824;2024-01-15T04:25:58;0.00;99.90
21033;DHT22;10675;47.976;7.824;2024-01-15T04:28:23;0.00;99.90
21033;DHT22;10675;47.976;7.824;2024-01-15T04:30:49;0.10;99.90
21033;DHT22;10675;47.976;7.824;2024-01-15T04:33:14;0.20;99.90
21033;DHT22;10675;47.976;7.824;2024-01-15T04:35:40;0.10;99.90
21033;DHT22;10675;47.976;7.824;2024-01-15T04:38:06;0.10;99.90
21033;DHT22;10675;47.976;7.824;2024-01-15T04:40:31;0.00;99.90
21033;DHT22;10675;47.976;7.824;2024-01-15T04:42:57;0.00;99.90
21033;DHT22;10675;47.976;7.824;2024-01-15T04:45:22;-0.10;99.90
21033;DHT22;10675;47.976;7.824;2024-01-15T04:47:53;-0.10;99.90
21033;DHT22;10675;47.976;7.824;2024-01-15T04:50:19;0.00;99.90
21033;DHT22;10675;47.976;7.824;2024-01-15T04:52:44;0.00;99.90
21033;DHT22;10675;47.976;7.824;2024-01-15T04:55:10;0.00;99.90
21033;DHT22;10675;47.976;7.824;2024-01-15T04:57:35;0.10;99.90
21033;DHT22;10675;47.976;7.824;2024-01-15T05:00:01;0.10;99.90
21033;DHT22;10675;47.976;7.824;2024-01-15T05:02:26;0.20;99.90
21033;DHT22;10675;47.976;7.824;2024-01-15T05:04:52;0.00;99.90
21033;DHT22;10675;47.976;7.824;2024-01-15T05:07:17;-0.10;99.90
21033;DHT22;10675;47.976;7.824;2024-01-15T05:09:43;-0.10;99.90
21033;DHT22;10675;47.976;7.824;2024-01-15T05:12:08;-0.10;99.90
21033;DHT22;10675;47.976;7.824;2024-01-15T05:14:34;0.10;99.90
21033;DHT22;10675;47.976;7.824;2024-01-15T05:16:59;0.10;99.90
21033;DHT22;10675;47.976;7.824;2024-01-15T05:19:24;0.00;99.90
21033;DHT22;10675;47.976;7.824;2024-01-15T05:21:50;0.10;99.90
21033;DHT22;10675;47.976;7.824;2024-01-15T05:24:16;0.10;99.90
21033;DHT22;10675;47.976;7.824;2024-01-15T05:26:41;0.20;99.90
21033;DHT22;10675;47.976;7.824;2024-01-15T05:29:06;0.20;99.90
21033;DHT22;10675;47.976;7.824;2024-01-15T05:31:32;0.20;99.90
21033;DHT22;10675;47.976;7.824;2024-01-15T05:33:58;0.20;99.90
21033;DHT22;10675;47.976;7.824;2024-01-15T05:36:23;0.20;99.90
21033;DHT22;10675;47.976;7.824;2024-01-15T05:38:49;0.00;99.90
21033;DHT22;10675;47.976;7.824;2024-01-15T05:41:15;0.10;99.90
21033;DHT22;10675;47.976;7.824;2024-01-15T05:43:40;0.10;99.90
21033;DHT22;10675;47.976;7.824;2024-01-15T05:46:06;0.10;99.90
21033;DHT22;10675;47.976;7.824;2024-01-15T05:48:31;0.30;99.90
21033;DHT22;10675;47.976;7.824;2024-01-15T05:50:57;0.30;99.90
21033;DHT22;10675;47.976;7.824;2024-01-15T05:53:22;0.40;99.90
21033;DHT22;10675;47.976;7.824;2024-01-15T05:55:48;0.40;99.90
21033;DHT22;10675;47.976;7.824;2024-01-15T05:58:14;0.50;99.90
21033;DHT22;10675;47.976;7.824;2024-01-15T06:00:39;0.50;99.90
21033;DHT22;10675;47.976;7.824;2024-01-15T06:03:05;0.40;99.90
21033;DHT22;10675;47.976;7.824;2024-01-15T06:05:30;0.40;99.90
21033;DHT22;10675;47.976;7.824;2024-01-15T06:07:56;0.50;99.90
21033;DHT22;10675;47.976;7.824;2024-01-15T06:10:21;0.50;99.90
21033;DHT22;10675;47.976;7.824;2024-01-15T06:12:47;0.50;99.90
21033;DHT22;10675;47.976;7.824;2024-01-15T06:15:12;0.50;99.90
21033;DHT22;10675;47.976;7.824;2024-01-15T06:17:38;0.60;99.90
21033;DHT22;10675;47.976;7.824;2024-01-15T06:20:04;0.60;99.90
21033;DHT22;10675;47.976;7.824;2024-01-15T06:22:30;0.60;99.90
21033;DHT22;10675;47.976;7.824;2024-01-15T06:24:55;0.60;99.90
21033;DHT22;10675;47.976;7.824;2024-01-15T06:27:21;0.60;99.90
21033;DHT22;10675;47.976;7.824;2024-01-15T06:29:47;0.70;99.90
21033;DHT22;10675;47.976;7.824;2024-01-15T06:32:13;0.70;99.90
21033;DHT22;10675;47.976;7.824;2024-01-15T06:34:38;0.70;99.90
21033;DHT22;10675;47.976;7.824;2024-01-15T06:37:04;0.80;99.90
21033;DHT22;10675;47.976;7.824;2024-01-15T06:39:30;0.80;99.90
21033;DHT22;10675;47.976;7.824;2024-01-15T06:41:56;0.80;99.90
21033;DHT22;10675;47.976;7.824;2024-01-15T06:44:21;0.80;99.90
21033;DHT22;10675;47.976;7.824;2024-01-15T06:46:47;0.80;99.90
21033;DHT22;10675;47.976;7.824;2024-01-15T06:49:13;0.90;99.90
21033;DHT22;10675;47.976;7.824;2024-01-15T06:51:39;0.90;99.90
21033;DHT22;10675;47.976;7.824;2024-01-15T06:54:05;0.90;99.90
21033;DHT22;10675;47.976;7.824;2024-01-15T06:56:31;0.90;99.90
21033;DHT22;10675;47.976;7.824;2024-01-15T06:58:57;0.90;99.90
21033;DHT22;10675;47.976;7.824;2024-01-15T07:01:23;0.90;99.90
21033;DHT22;10675;47.976;7.824;2024-01-15T07:03:48;0.90;99.90
21033;DHT22;10675;47.976;7.824;2024-01-15T07:06:14;0.90;99.90
21033;DHT22;10675;47.976;7.824;2024-01-15T07:08:40;0.90;99.90
21033;DHT22;10675;47.976;7.824;2024-01-15T07:11:06;0.90;99.90
21033;DHT22;10675;47.976;7.824;2024-01-15T07:13:32;0.90;99.90
21033;DHT22;10675;47.976;7.824;2024-01-15T07:15:58;1.00;99.90
21033;DHT22;10675;47.976;7.824;2024-01-15T07:18:24;1.20;99.90
21033;DHT22;10675;47.976;7.824;2024-01-15T07:20:51;1.30;99.90
21033;DHT22;10675;47.976;7.824;2024-01-15T07:23:16;1.20;99.90
21033;DHT22;10675;47.976;7.824;2024-01-15T07:25:42;1.20;99.90
21033;DHT22;10675;47.976;7.824;2024-01-15T07:28:08;1.10;99.90
21033;DHT22;10675;47.976;7.824;2024-01-15T07:30:34;1.10;99.90
21033;DHT22;10675;47.976;7.824;2024-01-15T07:32:59;1.20;99.90
21033;DHT22;10675;47.976;7.824;2024-01-15T07:35:25;1.20;99.90
21033;DHT22;10675;47.976;7.824;2024-01-15T07:37:50;1.20;99.90
21033;DHT22;10675;47.976;7.824;2024-01-15T07:40:16;1.20;99.90
21033;DHT22;10675;47.976;7.824;2024-01-15T07:42:41;1.30;99.90
21033;DHT22;10675;47.976;7.824;2024-01-15T07:45:08;1.30;99.90
21033;DHT22;10675;47.976;7.824;2024-01-15T07:47:34;1.30;99.90
21033;DHT22;10675;47.976;7.824;2024-01-15T07:50:00;1.40;99.90
21033;DHT22;10675;47.976;7.824;2024-01-15T07:52:25;1.50;99.90
21033;DHT22;10675;47.976;7.824;2024-01-15T07:54:51;1.50;99.90
21033;DHT22;10675;47.976;7.824;2024-01-15T07:57:16;1.60;99.90
21033;DHT22;10675;47.976;7.824;2024-01-15T07:59:42;1.60;99.90
21033;DHT22;10675;47.976;7.824;2024-01-15T08:02:07;1.70;99.90
21033;DHT22;10675;47.976;7.824;2024-01-15T08:04:33;1.80;99.90
21033;DHT22;10675;47.976;7.824;2024-01-15T08:06:58;1.80;99.90
21033;DHT22;10675;47.976;7.824;2024-01-15T08:09:24;1.90;99.90
21033;DHT22;10675;47.976;7.824;2024-01-15T08:11:49;1.90;99.90
21033;DHT22;10675;47.976;7.824;2024-01-15T08:14:15;2.00;99.90
21033;DHT22;10675;47.976;7.824;2024-01-15T08:16:41;2.10;99.90
21033;DHT22;10675;47.976;7.824;2024-01-15T08:19:06;2.20;99.90
21033;DHT22;10675;47.976;7.824;2024-01-15T08:21:32;2.20;99.90
21033;DHT22;10675;47.976;7.824;2024-01-15T08:24:01;2.20;99.90
21033;DHT22;10675;47.976;7.824;2024-01-15T08:26:30;2.20;99.90
21033;DHT22;10675;47.976;7.824;2024-01-15T08:28:55;2.20;99.90
21033;DHT22;10675;47.976;7.824;2024-01-15T08:31:21;2.20;99.90
21033;DHT22;10675;47.976;7.824;2024-01-15T08:33:47;2.20;99.90
21033;DHT22;10675;47.976;7.824;2024-01-15T08:36:13;2.20;99.90
21033;DHT22;10675;47.976;7.824;2024-01-15T08:38:38;2.20;99.90
21033;DHT22;10675;47.976;7.824;2024-01-15T08:41:04;2.10;99.90
21033;DHT22;10675;47.976;7.824;2024-01-15T08:43:30;2.10;99.90
21033;DHT22;10675;47.976;7.824;2024-01-15T08:45:58;2.10;99.90
21033;DHT22;10675;47.976;7.824;2024-01-15T08:48:24;2.00;99.90
21033;DHT22;10675;47.976;7.824;2024-01-15T08:50:53;2.10;99.90
21033;DHT22;10675;47.976;7.824;2024-01-15T08:53:18;2.10;99.90
21033;DHT22;10675;47.976;7.824;2024-01-15T08:55:44;2.10;99.90
21033;DHT22;10675;47.976;7.824;2024-01-15T08:58:10;2.10;99.90
21033;DHT22;10675;47.976;7.824;2024-01-15T09:00:35;3.10;99.90
21033;DHT22;10675;47.976;7.824;2024-01-15T09:03:01;2.60;99.90
21033;DHT22;10675;47.976;7.824;2024-01-15T09:05:27;2.30;99.90
21033;DHT22;10675;47.976;7.824;2024-01-15T09:07:52;2.20;99.90
21033;DHT22;10675;47.976;7.824;2024-01-15T09:10:19;2.20;99.90
21033;DHT22;10675;47.976;7.824;2024-01-15T09:12:45;2.10;99.90
21033;DHT22;10675;47.976;7.824;2024-01-15T09:15:11;2.10;99.90
21033;DHT22;10675;47.976;7.824;2024-01-15T09:17:36;2.10;99.90
21033;DHT22;10675;47.976;7.824;2024-01-15T09:20:02;2.10;99.90
21033;DHT22;10675;47.976;7.824;2024-01-15T09:22:29;2.10;99.90
21033;DHT22;10675;47.976;7.824;2024-01-15T09:24:55;2.20;99.90
21033;DHT22;10675;47.976;7.824;2024-01-15T09:27:21;2.20;99.90
21033;DHT22;10675;47.976;7.824;2024-01-15T09:29:46;2.30;99.90
21033;DHT22;10675;47.976;7.824;2024-01-15T09:32:12;2.30;99.90
21033;DHT22;10675;47.976;7.824;2024-01-15T09:34:38;2.30;99.90
21033;DHT22;10675;47.976;7.824;2024-01-15T09:37:04;2.50;99.90
21033;DHT22;10675;47.976;7.824;2024-01-15T09:39:30;2.60;99.90
21033;DHT22;10675;47.976;7.824;2024-01-15T09:41:56;2.70;99.90
21033;DHT22;10675;47.976;7.824;2024-01-15T09:44:23;2.80;99.00
21033;DHT22;10675;47.976;7.824;2024-01-15T09:46:48;2.80;98.20
21033;DHT22;10675;47.976;7.824;2024-01-15T09:49:17;2.80;98.30
21033;DHT22;10675;47.976;7.824;2024-01-15T09:51:43;2.90;98.20
21033;DHT22;10675;47.976;7.824;2024-01-15T09:54:09;2.90;98.30
21033;DHT22;10675;47.976;7.824;2024-01-15T09:56:35;2.90;97.40
21033;DHT22;10675;47.976;7.824;2024-01-15T09:59:02;2.90;97.20
21033;DHT22;10675;47.976;7.824;2024-01-15T10:01:31;2.90;97.00
21033;DHT22;10675;47.976;7.824;2024-01-15T10:03:56;2.90;97.40
21033;DHT22;10675;47.976;7.824;2024-01-15T10:06:22;2.90;96.90
21033;DHT22;10675;47.976;7.824;2024-01-15T10:08:49;3.00;97.10
21033;DHT22;10675;47.976;7.824;2024-01-15T10:11:15;3.00;97.00
21033;DHT22;10675;47.976;7.824;2024-01-15T10:13:45;3.00;97.30
21033;DHT22;10675;47.976;7.824;2024-01-15T10:16:11;3.00;97.10
21033;DHT22;10675;47.976;7.824;2024-01-15T10:18:37;2.90;97.30
21033;DHT22;10675;47.976;7.824;2024-01-15T10:21:06;2.90;97.40
21033;DHT22;10675;47.976;7.824;2024-01-15T10:23:32;2.90;97.80
21033;DHT22;10675;47.976;7.824;2024-01-15T10:25:58;2.90;98.00
21033;DHT22;10675;47.976;7.824;2024-01-15T10:28:26;3.00;97.70
21033;DHT22;10675;47.976;7.824;2024-01-15T10:30:56;2.90;97.20
21033;DHT22;10675;47.976;7.824;2024-01-15T10:33:22;3.00;97.20
21033;DHT22;10675;47.976;7.824;2024-01-15T10:36:00;2.90;97.30
21033;DHT22;10675;47.976;7.824;2024-01-15T10:38:25;2.90;97.50
21033;DHT22;10675;47.976;7.824;2024-01-15T10:40:52;2.90;97.50
21033;DHT22;10675;47.976;7.824;2024-01-15T10:43:18;2.90;97.60
21033;DHT22;10675;47.976;7.824;2024-01-15T10:45:48;3.00;97.80
21033;DHT22;10675;47.976;7.824;2024-01-15T10:48:14;2.80;98.00
21033;DHT22;10675;47.976;7.824;2024-01-15T10:50:41;2.90;98.60
21033;DHT22;10675;47.976;7.824;2024-01-15T10:53:08;2.80;98.30
21033;DHT22;10675;47.976;7.824;2024-01-15T10:55:38;2.70;98.50
21033;DHT22;10675;47.976;7.824;2024-01-15T10:58:05;2.70;98.60
21033;DHT22;10675;47.976;7.824;2024-01-15T11:00:36;2.80;98.80
21033;DHT22;10675;47.976;7.824;2024-01-15T11:03:03;2.80;99.30
21033;DHT22;10675;47.976;7.824;2024-01-15T11:05:43;2.70;99.30
21033;DHT22;10675;47.976;7.824;2024-01-15T11:08:09;2.70;99.60
21033;DHT22;10675;47.976;7.824;2024-01-15T11:10:45;2.70;99.70
21033;DHT22;10675;47.976;7.824;2024-01-15T11:13:22;2.70;99.70
21033;DHT22;10675;47.976;7.824;2024-01-15T11:16:04;2.60;99.90
21033;DHT22;10675;47.976;7.824;2024-01-15T11:18:34;2.60;99.60
21033;DHT22;10675;47.976;7.824;2024-01-15T11:23:55;2.60;99.90
21033;DHT22;10675;47.976;7.824;2024-01-15T11:29:02;2.60;99.90
21033;DHT22;10675;47.976;7.824;2024-01-15T11:34:07;2.60;99.90
21033;DHT22;10675;47.976;7.824;2024-01-15T11:41:53;2.50;99.90
21033;DHT22;10675;47.976;7.824;2024-01-15T11:44:19;2.50;99.90
21033;DHT22;10675;47.976;7.824;2024-01-15T11:47:01;2.50;99.90
21033;DHT22;10675;47.976;7.824;2024-01-15T11:52:19;2.60;99.90
21033;DHT22;10675;47.976;7.824;2024-01-15T11:54:55;2.50;99.90
21033;DHT22;10675;47.976;7.824;2024-01-15T12:00:03;2.50;99.90
21033;DHT22;10675;47.976;7.824;2024-01-15T12:02:29;2.60;99.90
21033;DHT22;10675;47.976;7.824;2024-01-15T12:04:55;2.60;99.90
21033;DHT22;10675;47.976;7.824;2024-01-15T12:07:20;2.60;99.90
21033;DHT22;10675;47.976;7.824;2024-01-15T12:09:46;2.60;99.90
21033;DHT22;10675;47.976;7.824;2024-01-15T12:12:20;3.00;99.90
21033;DHT22;10675;47.976;7.824;2024-01-15T12:14:49;2.60;99.90
21033;DHT22;10675;47.976;7.824;2024-01-15T12:17:16;2.70;99.90
21033;DHT22;10675;47.976;7.824;2024-01-15T12:19:42;2.70;99.90
21033;DHT22;10675;47.976;7.824;2024-01-15T12:22:08;2.70;99.90
21033;DHT22;10675;47.976;7.824;2024-01-15T12:24:35;2.70;99.90
21033;DHT22;10675;47.976;7.824;2024-01-15T12:27:01;2.70;99.90
21033;DHT22;10675;47.976;7.824;2024-01-15T12:29:26;2.80;99.90
21033;DHT22;10675;47.976;7.824;2024-01-15T12:31:53;2.80;99.90
21033;DHT22;10675;47.976;7.824;2024-01-15T12:34:18;2.80;99.90
21033;DHT22;10675;47.976;7.824;2024-01-15T12:36:46;2.90;99.90
21033;DHT22;10675;47.976;7.824;2024-01-15T12:39:12;2.80;99.90
21033;DHT22;10675;47.976;7.824;2024-01-15T12:41:38;2.80;99.90
21033;DHT22;10675;47.976;7.824;2024-01-15T12:44:05;2.80;99.90
21033;DHT22;10675;47.976;7.824;2024-01-15T12:46:31;2.90;99.90
21033;DHT22;10675;47.976;7.824;2024-01-15T12:48:57;2.90;99.80
21033;DHT22;10675;47.976;7.824;2024-01-15T12:51:26;2.90;99.60
21033;DHT22;10675;47.976;7.824;2024-01-15T12:53:53;2.90;99.60
21033;DHT22;10675;47.976;7.824;2024-01-15T12:56:18;2.90;99.40
21033;DHT22;10675;47.976;7.824;2024-01-15T12:58:44;2.90;98.80
21033;DHT22;10675;47.976;7.824;2024-01-15T13:01:09;2.90;99.00
21033;DHT22;10675;47.976;7.824;2024-01-15T13:03:35;2.90;99.50
21033;DHT22;10675;47.976;7.824;2024-01-15T13:06:01;3.00;99.70
21033;DHT22;10675;47.976;7.824;2024-01-15T13:08:26;3.00;99.30
21033;DHT22;10675;47.976;7.824;2024-01-15T13:10:55;2.90;99.10
21033;DHT22;10675;47.976;7.824;2024-01-15T13:13:22;3.00;99.00
21033;DHT22;10675;47.976;7.824;2024-01-15T13:15:48;3.00;99.00
21033;DHT22;10675;47.976;7.824;2024-01-15T13:18:13;3.00;99.20
21033;DHT22;10675;47.976;7.824;2024-01-15T13:20:39;3.00;99.30
21033;DHT22;10675;47.976;7.824;2024-01-15T13:23:04;3.00;98.90
21033;DHT22;10675;47.976;7.824;2024-01-15T13:25:30;2.90;99.10
21033;DHT22;10675;47.976;7.824;2024-01-15T13:27:56;3.00;99.40
21033;DHT22;10675;47.976;7.824;2024-01-15T13:30:21;2.90;99.90
21033;DHT22;10675;47.976;7.824;2024-01-15T13:32:47;2.90;99.70
21033;DHT22;10675;47.976;7.824;2024-01-15T13:35:12;2.90;99.90
21033;DHT22;10675;47.976;7.824;2024-01-15T13:37:39;2.80;99.90
21033;DHT22;10675;47.976;7.824;2024-01-15T13:40:07;2.80;99.90
21033;DHT22;10675;47.976;7.824;2024-01-15T13:42:35;2.70;99.90
21033;DHT22;10675;47.976;7.824;2024-01-15T13:45:05;2.70;99.90
21033;DHT22;10675;47.976;7.824;2024-01-15T13:47:31;2.70;99.90
21033;DHT22;10675;47.976;7.824;2024-01-15T13:49:57;2.70;99.90
21033;DHT22;10675;47.976;7.824;2024-01-15T13:52:23;2.70;99.90
21033;DHT22;10675;47.976;7.824;2024-01-15T13:54:49;2.70;99.90
21033;DHT22;10675;47.976;7.824;2024-01-15T13:57:14;2.60;99.90
21033;DHT22;10675;47.976;7.824;2024-01-15T13:59:40;2.60;99.90
21033;DHT22;10675;47.976;7.824;2024-01-15T14:02:05;2.50;99.90
21033;DHT22;10675;47.976;7.824;2024-01-15T14:04:31;2.50;99.90
21033;DHT22;10675;47.976;7.824;2024-01-15T14:06:56;2.50;99.90
21033;DHT22;10675;47.976;7.824;2024-01-15T14:09:22;2.40;99.90
21033;DHT22;10675;47.976;7.824;2024-01-15T14:11:48;2.40;99.90
21033;DHT22;10675;47.976;7.824;2024-01-15T14:14:14;2.50;99.90
21033;DHT22;10675;47.976;7.824;2024-01-15T14:16:39;2.50;99.90
21033;DHT22;10675;47.976;7.824;2024-01-15T14:19:05;2.40;99.90
21033;DHT22;10675;47.976;7.824;2024-01-15T14:21:35;2.40;99.90
21033;DHT22;10675;47.976;7.824;2024-01-15T14:24:00;2.40;99.90
21033;DHT22;10675;47.976;7.824;2024-01-15T14:26:26;2.40;99.90
21033;DHT22;10675;47.976;7.824;2024-01-15T14:28:51;2.40;99.90
21033;DHT22;10675;47.976;7.824;2024-01-15T14:31:17;2.40;99.90
21033;DHT22;10675;47.976;7.824;2024-01-15T14:33:43;2.30;99.90
21033;DHT22;10675;47.976;7.824;2024-01-15T14:36:08;2.30;99.90
21033;DHT22;10675;47.976;7.824;2024-01-15T14:38:34;2.30;99.90
21033;DHT22;10675;47.976;7.824;2024-01-15T14:41:00;2.30;99.90
21033;DHT22;10675;47.976;7.824;2024-01-15T14:43:26;2.40;99.90
21033;DHT22;10675;47.976;7.824;2024-01-15T14:45:51;2.30;99.90
21033;DHT22;10675;47.976;7.824;2024-01-15T14:48:17;2.30;99.90
21033;DHT22;10675;47.976;7.824;2024-01-15T14:50:42;2.30;99.90
21033;DHT22;10675;47.976;7.824;2024-01-15T14:53:08;2.30;99.90
21033;DHT22;10675;47.976;7.824;2024-01-15T14:55:33;2.30;99.90
21033;DHT22;10675;47.976;7.824;2024-01-15T14:57:59;2.30;99.90
21033;DHT22;10675;47.976;7.824;2024-01-15T15:00:24;2.30;99.90
21033;DHT22;10675;47.976;7.824;2024-01-15T15:02:50;2.30;99.90
21033;DHT22;10675;47.976;7.824;2024-01-15T15:05:15;2.50;99.90
21033;DHT22;10675;47.976;7.824;2024-01-15T15:07:43;2.50;99.90
21033;DHT22;10675;47.976;7.824;2024-01-15T15:10:09;2.50;99.90
21033;DHT22;10675;47.976;7.824;2024-01-15T15:12:36;2.40;99.90
21033;DHT22;10675;47.976;7.824;2024-01-15T15:15:02;2.30;99.90
21033;DHT22;10675;47.976;7.824;2024-01-15T15:17:27;2.20;99.90
21033;DHT22;10675;47.976;7.824;2024-01-15T15:19:53;2.20;99.90
21033;DHT22;10675;47.976;7.824;2024-01-15T15:22:20;2.20;99.90
21033;DHT22;10675;47.976;7.824;2024-01-15T15:24:46;2.20;99.90
21033;DHT22;10675;47.976;7.824;2024-01-15T15:27:12;2.20;99.90
21033;DHT22;10675;47.976;7.824;2024-01-15T15:29:37;2.20;99.90
21033;DHT22;10675;47.976;7.824;2024-01-15T15:32:03;2.20;99.90
21033;DHT22;10675;47.976;7.824;2024-01-15T15:34:29;2.20;99.90
21033;DHT22;10675;47.976;7.824;2024-01-15T15:36:54;2.20;99.90
21033;DHT22;10675;47.976;7.824;2024-01-15T15:39:20;2.20;99.90
21033;DHT22;10675;47.976;7.824;2024-01-15T15:41:45;2.30;99.90
21033;DHT22;10675;47.976;7.824;2024-01-15T15:44:11;2.20;99.90
21033;DHT22;10675;47.976;7.824;2024-01-15T15:46:38;2.20;99.90
21033;DHT22;10675;47.976;7.824;2024-01-15T15:49:04;2.20;99.90
21033;DHT22;10675;47.976;7.824;2024-01-15T15:51:35;2.20;99.90
21033;DHT22;10675;47.976;7.824;2024-01-15T15:54:03;2.20;99.90